Time;durP1;ratioP1;P1;durP2;ratioP2;P2;SDS_P1;SDS_P2;PMS_P1;PMS_P2;Temp;Humidity;BMP_temperature;BMP_pressure;BME280_temperature;BME280_humidity;BME280_pressure;Samples;Min_cycle;Max_cycle;Signal;HPM_P1;HPM_P2
2022/05/21 00:00:54;;;;;;;2.92;1.48;;;;;;;19.61;63.18;96629.75;10186379;29;20044;-82
2022/05/21 00:06:14;;;;;;;2.95;1.50;;;;;;;19.59;63.30;96632.78;10178953;29;20040;-82
2022/05/21 00:11:34;;;;;;;2.20;1.70;;;;;;;19.60;63.41;96637.06;10182156;29;20053;-82
2022/05/21 00:16:53;;;;;;;2.47;1.42;;;;;;;19.60;63.23;96645.19;10183295;29;20573;-82
2022/05/21 00:22:12;;;;;;;2.00;1.77;;;;;;;19.60;63.31;96647.88;10178060;29;20079;-82
2022/05/21 00:27:32;;;;;;;3.65;1.80;;;;;;;19.60;63.25;96647.06;10191570;29;20057;-82
2022/05/21 00:32:51;;;;;;;2.22;1.52;;;;;;;19.61;63.39;96659.47;10178661;29;20056;-82
2022/05/21 00:38:11;;;;;;;16.50;1.77;;;;;;;19.60;63.60;96647.88;10191303;29;20055;-82
2022/05/21 00:43:36;;;;;;;5.20;1.50;;;;;;;19.71;64.87;96662.59;10194593;29;20056;-82
2022/05/21 00:49:07;;;;;;;2.72;1.60;;;;;;;19.78;63.41;96653.16;10198619;29;20139;-82
2022/05/21 00:54:30;;;;;;;2.58;1.65;;;;;;;19.70;63.16;96663.69;10190379;29;20193;-82
2022/05/21 00:59:54;;;;;;;6.55;1.80;;;;;;;19.76;64.64;96669.75;10173362;29;20092;-82
2022/05/21 01:05:17;;;;;;;6.18;1.63;;;;;;;19.78;64.20;96663.97;10161679;29;20055;-82
2022/05/21 01:10:40;;;;;;;4.28;1.70;;;;;;;19.74;63.25;96685.50;10187944;29;20107;-82
2022/05/21 01:16:00;;;;;;;3.03;1.80;;;;;;;19.70;63.29;96695.34;10176842;29;20107;-82
2022/05/21 01:21:20;;;;;;;7.50;1.58;;;;;;;19.73;63.84;96700.13;10172815;29;20412;-82
2022/05/21 01:26:40;;;;;;;1.70;1.60;;;;;;;19.70;63.23;96706.16;10172109;29;20115;-82
2022/05/21 01:31:59;;;;;;;2.40;1.40;;;;;;;19.68;63.12;96714.59;10172668;29;20052;-82
2022/05/21 01:37:18;;;;;;;2.35;1.60;;;;;;;19.68;63.13;96727.28;10177539;29;20049;-82
2022/05/21 01:42:38;;;;;;;1.85;1.42;;;;;;;19.64;63.09;96737.97;10190391;29;20054;-82
2022/05/21 01:47:58;;;;;;;2.78;1.45;;;;;;;19.63;63.06;96754.50;10185521;29;20072;-82
2022/05/21 01:53:19;;;;;;;1.63;1.30;;;;;;;19.63;63.05;96754.50;10160268;29;20060;-82
2022/05/21 01:58:39;;;;;;;3.50;1.40;;;;;;;19.61;63.11;96779.16;10170506;29;20052;-82
2022/05/21 02:03:58;;;;;;;2.92;1.65;;;;;;;19.63;62.97;96792.34;10186155;29;20510;-82
2022/05/21 02:09:17;;;;;;;1.75;1.50;;;;;;;19.62;63.16;96798.84;10171376;29;20060;-82
2022/05/21 02:14:37;;;;;;;2.75;1.45;;;;;;;19.61;63.01;96811.59;10168453;29;20048;-82
2022/05/21 02:19:57;;;;;;;2.28;1.33;;;;;;;19.61;62.94;96813.50;10177826;29;20040;-82
2022/05/21 02:25:16;;;;;;;1.80;1.30;;;;;;;19.61;62.92;96822.41;10186473;29;20058;-82
2022/05/21 02:30:36;;;;;;;2.00;1.20;;;;;;;19.60;62.82;96818.13;10176539;29;20088;-82
2022/05/21 02:35:55;;;;;;;1.52;1.40;;;;;;;19.60;62.87;96825.41;10160397;29;20048;-82
2022/05/21 02:41:16;;;;;;;2.38;1.40;;;;;;;19.61;62.91;96833.19;10177111;29;20072;-82
2022/05/21 02:46:35;;;;;;;1.83;1.42;;;;;;;19.61;62.88;96843.22;10180905;29;20522;-82
2022/05/21 02:51:55;;;;;;;2.65;1.50;;;;;;;19.60;62.80;96845.16;10184212;29;20044;-82
2022/05/21 02:57:15;;;;;;;2.85;1.48;;;;;;;19.59;62.71;96846.25;10179413;29;20059;-82
2022/05/21 03:02:34;;;;;;;1.95;1.35;;;;;;;19.60;62.69;96847.03;10179398;29;20067;-81
2022/05/21 03:07:55;;;;;;;1.40;1.30;;;;;;;19.60;62.73;96847.03;10193161;29;20052;-82
2022/05/21 03:13:14;;;;;;;2.65;1.48;;;;;;;19.59;62.68;96858.97;10171542;29;20052;-82
2022/05/21 03:18:35;;;;;;;1.60;1.40;;;;;;;19.59;62.79;96851.66;10186078;29;20056;-82
2022/05/21 03:23:55;;;;;;;1.65;1.55;;;;;;;19.59;62.69;96857.06;10156198;29;21460;-82
2022/05/21 03:29:14;;;;;;;1.77;1.40;;;;;;;19.60;62.67;96869.47;10178437;29;20063;-82
2022/05/21 03:34:36;;;;;;;1.63;1.40;;;;;;;19.60;62.50;96876.75;10195205;29;20055;-82
2022/05/21 03:39:55;;;;;;;2.53;1.42;;;;;;;19.61;62.57;96897.28;10197467;29;20048;-82
2022/05/21 03:45:15;;;;;;;1.80;1.65;;;;;;;19.60;62.43;96901.06;10201654;29;20048;-82
2022/05/21 03:50:35;;;;;;;4.75;1.42;;;;;;;19.58;61.42;96908.72;10187987;29;20052;-83
2022/05/21 03:55:56;;;;;;;2.92;1.52;;;;;;;19.50;58.77;96910.31;10172595;29;20048;-82
2022/05/21 04:01:16;;;;;;;1.98;1.45;;;;;;;19.19;56.48;96916.72;10174846;29;20080;-81
2022/05/21 04:06:35;;;;;;;1.75;1.30;;;;;;;19.01;56.53;96934.03;10189821;29;20052;-81
2022/05/21 04:11:56;;;;;;;1.73;1.40;;;;;;;18.94;56.56;96937.22;10196300;29;20059;-81
2022/05/21 04:17:16;;;;;;;2.75;1.33;;;;;;;18.85;55.91;96949.91;10169883;29;20054;-81
2022/05/21 04:22:35;;;;;;;1.40;1.30;;;;;;;18.76;56.05;96961.44;10179300;29;20471;-81
2022/05/21 04:27:55;;;;;;;3.10;1.30;;;;;;;18.91;56.92;96964.81;10196595;29;20056;-81
2022/05/21 04:33:14;;;;;;;3.35;1.52;;;;;;;18.91;56.92;96964.81;10169111;29;20052;-81
2022/05/21 04:38:34;;;;;;;2.22;1.30;;;;;;;19.19;57.40;96986.13;10165263;29;20052;-80
2022/05/21 04:43:55;;;;;;;2.17;1.23;;;;;;;19.24;57.62;96986.00;10173652;29;20078;-80
2022/05/21 04:49:14;;;;;;;2.22;1.48;;;;;;;19.28;57.86;96995.81;10178003;29;20048;-81
2022/05/21 04:54:36;;;;;;;5.82;1.30;;;;;;;19.32;57.76;97012.19;10183629;29;20056;-81
2022/05/21 04:59:55;;;;;;;2.15;1.30;;;;;;;19.33;57.92;97011.88;10185958;29;20052;-82
2022/05/21 05:05:14;;;;;;;1.85;1.30;;;;;;;19.35;58.30;97022.38;10166041;29;20052;-81
2022/05/21 05:10:36;;;;;;;3.42;1.30;;;;;;;19.36;58.37;97018.56;10191047;29;20087;-82
2022/05/21 05:15:55;;;;;;;1.45;1.23;;;;;;;19.38;58.10;97020.94;10191515;29;20106;-80
2022/05/21 05:21:15;;;;;;;5.05;1.40;;;;;;;19.34;56.99;97020.78;10200009;29;20067;-82
2022/05/21 05:26:34;;;;;;;1.02;0.90;;;;;;;19.30;55.08;97017.91;10182455;29;20055;-81
2022/05/21 05:31:54;;;;;;;3.20;1.17;;;;;;;19.23;55.09;97024.91;10160024;29;20052;-81
2022/05/21 05:37:13;;;;;;;1.20;1.10;;;;;;;19.24;55.22;97032.69;10178724;29;20060;-82
2022/05/21 05:42:35;;;;;;;1.83;1.10;;;;;;;19.23;55.51;97031.13;10191017;29;20461;-81
2022/05/21 05:47:55;;;;;;;1.20;1.10;;;;;;;19.27;55.81;97042.09;10222792;29;20058;-82
2022/05/21 05:53:14;;;;;;;3.72;1.42;;;;;;;19.29;56.11;97056.06;10221385;29;20052;-82
2022/05/21 06:04:13;;;;;;;1.73;1.30;;;;;;;19.35;56.78;97050.19;10209225;29;20543;-81
2022/05/21 06:09:32;;;;;;;4.07;1.33;;;;;;;19.37;56.95;97044.47;10206660;29;20047;-82
2022/05/21 06:14:53;;;;;;;1.88;1.30;;;;;;;19.39;56.86;97050.34;10180518;29;20060;-82
2022/05/21 06:20:15;;;;;;;1.15;1.05;;;;;;;19.42;57.15;97048.91;10181394;29;20048;-82
2022/05/21 06:25:35;;;;;;;2.63;1.20;;;;;;;19.44;57.24;97052.09;10177291;29;20052;-82
2022/05/21 06:30:55;;;;;;;1.23;1.13;;;;;;;19.44;57.38;97055.59;10183390;29;20689;-82
2022/05/21 06:36:15;;;;;;;2.00;1.30;;;;;;;19.45;57.44;97065.28;10179895;29;20048;-82
2022/05/21 06:41:34;;;;;;;1.63;1.33;;;;;;;19.46;57.42;97058.75;10179510;29;20080;-82
2022/05/21 06:46:55;;;;;;;1.60;1.50;;;;;;;19.48;57.48;97061.97;10193850;29;20435;-82
2022/05/21 06:52:14;;;;;;;2.58;1.65;;;;;;;19.49;57.66;97063.53;10192369;29;20080;-82
2022/05/21 06:57:33;;;;;;;2.00;1.63;;;;;;;19.50;57.76;97067.03;10178223;29;20063;-82
2022/05/21 07:02:53;;;;;;;4.18;1.65;;;;;;;19.52;57.82;97062.09;10192794;29;20054;-82
2022/05/21 07:08:20;;;;;;;4.68;1.52;;;;;;;19.50;57.78;97065.16;10193110;29;20494;-82
2022/05/21 07:13:40;;;;;;;3.72;1.90;;;;;;;19.52;58.01;97070.22;10150890;29;20067;-82
2022/05/21 07:19:00;;;;;;;3.22;1.65;;;;;;;19.52;57.95;97071.03;10180455;29;20599;-82
2022/05/21 07:24:19;;;;;;;3.58;1.80;;;;;;;19.54;57.92;97082.31;10164530;29;20567;-82
2022/05/21 07:29:42;;;;;;;3.45;1.60;;;;;;;19.54;58.09;97084.19;10180778;29;20060;-82
2022/05/21 07:35:20;;;;;;;3.40;1.70;;;;;;;19.55;58.11;97105.50;10183920;29;20063;-82
2022/05/21 07:40:42;;;;;;;2.53;1.90;;;;;;;19.55;58.20;97100.09;10183829;29;20052;-82
2022/05/21 07:46:01;;;;;;;3.08;1.90;;;;;;;19.55;58.24;97094.69;10183151;29;20408;-82
2022/05/21 07:51:21;;;;;;;2.83;1.95;;;;;;;19.58;58.25;97097.88;10184582;29;20072;-82
2022/05/21 07:56:40;;;;;;;3.28;1.80;;;;;;;19.56;58.15;97085.50;10173309;29;20059;-82
2022/05/21 08:02:00;;;;;;;3.70;1.90;;;;;;;19.58;58.22;97092.47;10195040;29;20062;-81
2022/05/21 08:07:21;;;;;;;4.43;2.10;;;;;;;19.58;58.39;97095.19;10181179;29;20052;-81
2022/05/21 08:12:40;;;;;;;3.95;2.05;;;;;;;19.59;58.56;97088.69;10198194;29;20056;-82
2022/05/21 08:18:00;;;;;;;3.72;1.95;;;;;;;19.60;58.39;97079.44;10182449;29;20056;-81
2022/05/21 08:29:00;;;;;;;3.50;1.67;;;;;;;19.61;58.51;97091.84;10184864;29;20052;-82
2022/05/21 08:34:20;;;;;;;3.88;1.95;;;;;;;19.61;58.50;97092.66;10196984;29;20662;-82
2022/05/21 08:39:39;;;;;;;3.53;1.90;;;;;;;19.62;58.50;97101.53;10170545;29;20059;-82
2022/05/21 08:45:11;;;;;;;3.40;1.75;;;;;;;19.62;58.67;97093.44;10145650;29;20431;-82
2022/05/21 08:50:34;;;;;;;2.95;1.88;;;;;;;19.63;58.67;97095.03;10146957;29;20681;-81
2022/05/21 08:55:56;;;;;;;8.63;2.08;;;;;;;19.63;58.59;97095.03;10155711;29;20064;-82
2022/05/21 09:01:19;;;;;;;2.42;1.90;;;;;;;19.64;58.66;97099.31;10156337;29;20049;-82
2022/05/21 09:06:55;;;;;;;3.25;1.80;;;;;;;19.65;58.65;97082.00;10129593;29;20064;-82
2022/05/21 09:12:19;;;;;;;3.50;1.60;;;;;;;19.65;58.78;97087.41;10127518;29;20056;-83
2022/05/21 09:17:42;;;;;;;2.63;1.67;;;;;;;19.67;58.75;97085.19;10167569;29;20049;-82
2022/05/21 09:23:02;;;;;;;3.72;1.90;;;;;;;19.67;58.74;97090.59;10183703;29;20320;-81
2022/05/21 09:28:22;;;;;;;3.28;1.80;;;;;;;19.67;58.84;97087.88;10182468;29;20052;-82
2022/05/21 09:33:46;;;;;;;3.70;1.80;;;;;;;19.68;58.76;97089.44;10194798;29;20052;-81
2022/05/21 09:39:06;;;;;;;2.60;1.65;;;;;;;19.68;58.75;97090.28;10166712;29;20051;-82
2022/05/21 09:50:08;;;;;;;3.47;1.48;;;;;;;19.69;58.81;97088.34;10177912;29;20056;-82
2022/05/21 09:55:29;;;;;;;3.28;1.85;;;;;;;19.70;58.80;97106.19;10166134;29;20055;-82
2022/05/21 10:00:54;;;;;;;2.65;1.55;;;;;;;19.70;58.87;97106.97;10173516;29;20052;-82
2022/05/21 10:06:19;;;;;;;2.35;1.52;;;;;;;19.72;58.78;97098.56;10224292;29;20068;-82
2022/05/21 10:11:44;;;;;;;1.98;1.55;;;;;;;19.72;58.81;97106.69;10234108;29;20503;-82
2022/05/21 10:17:18;;;;;;;3.10;1.48;;;;;;;19.73;58.95;97105.56;10219479;29;20052;-82
2022/05/21 10:22:54;;;;;;;1.63;1.50;;;;;;;19.73;58.97;97108.25;10218527;29;20055;-82
2022/05/21 10:28:28;;;;;;;2.33;1.60;;;;;;;19.74;58.89;97112.56;10164364;29;20052;-82
2022/05/21 10:33:53;;;;;;;2.45;1.70;;;;;;;19.74;58.85;97109.88;10180142;29;20058;-81
2022/05/21 10:39:22;;;;;;;1.65;1.40;;;;;;;19.76;58.87;97104.94;10191269;29;20472;-82
2022/05/21 10:45:16;;;;;;;1.67;1.35;;;;;;;19.75;58.96;97089.81;10191216;29;20056;-82
2022/05/21 10:50:51;;;;;;;2.75;1.50;;;;;;;19.75;58.97;97093.31;10188557;29;20392;-82
2022/05/21 10:56:11;;;;;;;1.88;1.35;;;;;;;19.76;58.89;97094.13;10203891;29;20475;-82
2022/05/21 11:01:30;;;;;;;1.80;1.38;;;;;;;19.76;59.01;97096.81;10190125;29;20080;-82
2022/05/21 11:07:10;;;;;;;2.17;1.42;;;;;;;19.77;58.94;97079.47;10196771;29;20055;-82
2022/05/21 11:12:51;;;;;;;2.40;1.42;;;;;;;19.77;58.88;97084.88;10198906;29;20056;-82
2022/05/21 11:18:19;;;;;;;2.30;1.40;;;;;;;19.79;58.86;97085.34;10190604;29;20056;-82
2022/05/21 11:23:57;;;;;;;1.88;1.42;;;;;;;19.79;58.89;97084.56;10196330;29;20104;-82
2022/05/21 11:29:40;;;;;;;2.38;1.20;;;;;;;19.80;59.00;97078.03;10183854;29;20566;-82
2022/05/21 11:40:49;;;;;;;1.98;1.35;;;;;;;19.82;58.93;97076.63;10185363;29;20052;-82
2022/05/21 11:46:10;;;;;;;1.55;1.30;;;;;;;19.82;58.93;97076.63;10195342;29;20060;-82
2022/05/21 11:51:30;;;;;;;1.40;1.30;;;;;;;19.84;58.89;97085.22;10183104;29;20053;-82
2022/05/21 11:57:04;;;;;;;2.60;1.70;;;;;;;19.84;59.04;97084.41;10196247;29;20052;-81
2022/05/21 12:02:26;;;;;;;1.85;1.40;;;;;;;19.84;58.96;97079.81;10185113;29;20052;-82
2022/05/21 12:07:48;;;;;;;2.63;1.40;;;;;;;19.84;58.82;97063.59;10181221;29;20063;-82
2022/05/21 12:13:13;;;;;;;1.52;1.30;;;;;;;19.85;58.90;97067.06;10197449;29;20056;-82
2022/05/21 12:18:33;;;;;;;1.80;1.10;;;;;;;19.85;58.89;97073.25;10163787;29;20071;-82
2022/05/21 12:23:53;;;;;;;1.27;1.17;;;;;;;19.87;58.93;97067.53;10191199;29;20052;-82
2022/05/21 12:29:25;;;;;;;2.40;1.38;;;;;;;19.88;58.87;97063.75;10181858;29;20081;-82
2022/05/21 12:35:09;;;;;;;1.40;1.20;;;;;;;19.87;58.88;97081.84;10191691;29;20063;-82
2022/05/21 12:40:56;;;;;;;1.80;0.95;;;;;;;19.87;58.83;97062.13;10181427;29;20056;-82
2022/05/21 12:46:24;;;;;;;1.27;1.10;;;;;;;19.88;58.91;97074.56;10164916;29;20545;-82
2022/05/21 12:51:48;;;;;;;2.20;1.40;;;;;;;19.88;58.83;97061.03;10158797;29;20202;-82
2022/05/21 12:57:12;;;;;;;1.83;1.20;;;;;;;19.88;58.87;97056.41;10179836;29;20056;-82
2022/05/21 13:02:50;;;;;;;1.35;1.10;;;;;;;19.91;58.89;97058.47;10181273;29;20058;-82
2022/05/21 13:08:11;;;;;;;2.08;1.20;;;;;;;19.89;58.86;97065.31;10176487;29;20084;-82
2022/05/21 13:13:37;;;;;;;1.30;1.10;;;;;;;19.89;58.87;97055.28;10182325;29;20055;-82
2022/05/21 13:19:15;;;;;;;1.33;1.23;;;;;;;19.89;58.90;97055.28;10177303;29;20052;-82
2022/05/21 13:24:42;;;;;;;2.15;1.30;;;;;;;19.90;58.93;97065.00;10181118;29;20060;-82
2022/05/21 13:30:12;;;;;;;1.52;1.20;;;;;;;19.91;59.05;97054.97;10190448;29;20048;-82
2022/05/21 13:35:33;;;;;;;2.45;1.15;;;;;;;19.91;58.84;97053.06;10188742;29;20420;-82
2022/05/21 13:40:54;;;;;;;1.42;1.08;;;;;;;19.92;58.79;97062.78;10164380;29;20059;-82
2022/05/21 13:46:21;;;;;;;1.13;1.02;;;;;;;19.92;58.84;97068.19;10166431;29;20089;-82
2022/05/21 13:51:41;;;;;;;1.42;1.10;;;;;;;19.91;58.85;97068.50;10178302;29;20051;-82
2022/05/21 13:57:05;;;;;;;1.15;1.00;;;;;;;19.93;58.93;97067.06;10190756;29;20048;-82
2022/05/21 14:02:25;;;;;;;2.88;1.23;;;;;;;19.93;58.71;97053.56;10193327;29;20060;-82
2022/05/21 14:07:51;;;;;;;1.25;1.10;;;;;;;19.93;58.90;97058.97;10179605;29;20060;-82
2022/05/21 14:13:33;;;;;;;1.15;1.00;;;;;;;19.95;58.80;97054.03;10175218;29;20612;-82
2022/05/21 14:18:59;;;;;;;1.65;1.20;;;;;;;19.94;58.78;97059.75;10188675;29;20063;-82
2022/05/21 14:24:25;;;;;;;2.30;1.00;;;;;;;19.95;58.71;97050.50;10191864;29;20056;-82
2022/05/21 14:29:53;;;;;;;1.33;0.95;;;;;;;19.96;58.79;97054.81;10178141;29;20063;-82
2022/05/21 14:35:15;;;;;;;1.63;1.00;;;;;;;19.98;58.79;97052.59;10177193;29;20056;-83
2022/05/21 14:40:56;;;;;;;1.02;0.90;;;;;;;19.99;58.86;97050.66;10186064;29;20067;-82
2022/05/21 14:57:33;;;;;;;1.15;1.00;;;;;;;20.02;59.00;97052.75;10174453;29;20674;-82
2022/05/21 15:02:53;;;;;;;1.30;1.20;;;;;;;20.02;58.84;97050.84;10156942;29;20059;-82
2022/05/21 15:08:17;;;;;;;1.13;0.90;;;;;;;20.04;59.02;97053.22;10168772;29;20056;-82
2022/05/21 15:13:37;;;;;;;1.30;1.20;;;;;;;20.05;59.06;97036.69;10183857;29;20040;-82
2022/05/21 15:18:57;;;;;;;1.45;1.00;;;;;;;20.08;59.09;97037.94;10169948;29;20056;-82
2022/05/21 15:24:17;;;;;;;1.30;0.90;;;;;;;20.09;58.84;97037.63;10196282;29;20778;-82
2022/05/21 15:29:38;;;;;;;0.90;0.80;;;;;;;20.08;58.89;97046.84;10193901;29;20060;-82
2022/05/21 15:34:57;;;;;;;1.00;0.90;;;;;;;20.08;58.93;97035.22;10194895;29;20056;-82
2022/05/21 15:40:16;;;;;;;1.52;0.90;;;;;;;20.08;59.08;97027.13;10143012;29;20508;-82
2022/05/21 15:45:38;;;;;;;1.20;0.90;;;;;;;20.08;58.80;97037.94;10158541;29;20062;-82
2022/05/21 15:50:57;;;;;;;1.17;0.90;;;;;;;20.07;58.93;97033.63;10164472;29;20060;-82
2022/05/21 15:56:18;;;;;;;0.95;0.88;;;;;;;20.09;58.83;97039.50;10167382;29;20049;-82
2022/05/21 16:01:37;;;;;;;1.08;0.90;;;;;;;20.09;58.90;97029.50;10178120;29;20056;-82
2022/05/21 16:06:57;;;;;;;1.17;0.95;;;;;;;20.11;58.96;97040.81;10167436;29;20051;-82
2022/05/21 16:12:17;;;;;;;1.17;1.00;;;;;;;20.12;58.82;97036.19;10165353;29;20531;-82
2022/05/21 16:17:37;;;;;;;1.13;0.88;;;;;;;20.12;59.00;97025.34;10165384;29;20119;-82
2022/05/21 16:22:56;;;;;;;0.88;0.77;;;;;;;20.12;58.87;97034.25;10166783;29;20055;-82
2022/05/21 16:28:16;;;;;;;1.23;0.90;;;;;;;20.11;58.78;97035.38;10165468;29;20135;-82
2022/05/21 16:33:36;;;;;;;1.20;0.90;;;;;;;20.12;58.83;97033.47;10159574;29;20052;-82
2022/05/21 16:38:55;;;;;;;0.77;0.75;;;;;;;20.13;58.96;97032.34;10193361;29;20056;-82
2022/05/21 16:44:15;;;;;;;0.80;0.70;;;;;;;20.14;58.83;97021.19;10192806;29;20055;-82
2022/05/21 16:49:35;;;;;;;0.88;0.70;;;;;;;20.16;58.80;97037.13;10189790;29;20060;-82
2022/05/21 16:54:54;;;;;;;1.00;0.90;;;;;;;20.16;58.89;97023.59;10204651;29;20056;-82
2022/05/21 17:00:14;;;;;;;1.15;0.90;;;;;;;20.15;58.78;97025.50;10177228;29;20052;-82
2022/05/21 17:05:34;;;;;;;0.63;0.63;;;;;;;20.15;58.72;97028.22;10189564;29;20074;-82
2022/05/21 17:10:53;;;;;;;0.82;0.82;;;;;;;20.14;58.67;97021.19;10191179;29;20551;-82
2022/05/21 17:16:13;;;;;;;0.98;0.82;;;;;;;20.13;58.65;97024.22;10181677;29;20063;-82
2022/05/21 17:21:39;;;;;;;1.08;0.80;;;;;;;20.12;58.62;97028.06;10163220;29;20060;-82
2022/05/21 17:30:28;;;;;;;0.93;0.90;;;;;;;20.11;58.63;97011.03;10151142;29;20056;-82
2022/05/21 17:32:51;;;;;;;0.75;0.75;;;;;;;20.11;58.58;97026.47;10180642;29;20059;-82
2022/05/21 17:38:11;;;;;;;0.73;0.70;;;;;;;20.11;58.53;97015.63;10180315;29;20083;-82
2022/05/21 17:43:33;;;;;;;0.75;0.73;;;;;;;20.11;58.57;97021.88;10193817;29;20048;-83
2022/05/21 17:48:52;;;;;;;0.82;0.77;;;;;;;20.10;58.41;97022.97;10179810;29;20067;-82
2022/05/21 17:54:15;;;;;;;0.75;0.60;;;;;;;20.10;58.59;97027.59;10188903;29;20419;-82
2022/05/21 17:59:34;;;;;;;0.82;0.70;;;;;;;20.10;58.50;97024.88;10164910;29;20519;-82
2022/05/21 18:04:54;;;;;;;0.88;0.70;;;;;;;20.09;58.45;97028.69;10164550;29;20086;-82
2022/05/21 18:10:15;;;;;;;0.80;0.80;;;;;;;20.09;58.36;97026.00;10149040;29;20108;-82
2022/05/21 18:21:14;;;;;;;0.70;0.70;;;;;;;20.09;58.34;97028.69;10190598;29;20052;-82
2022/05/21 18:26:34;;;;;;;0.70;0.70;;;;;;;20.09;58.36;97028.69;10183732;29;20115;-82
2022/05/21 18:31:57;;;;;;;0.70;0.70;;;;;;;20.07;58.24;97039.03;10232043;29;20102;-82
2022/05/21 18:37:18;;;;;;;0.70;0.70;;;;;;;20.07;58.23;97037.16;10218180;29;20048;-82
2022/05/21 18:42:41;;;;;;;1.02;0.70;;;;;;;20.08;58.22;97040.66;10214374;29;20427;-82
2022/05/21 18:48:00;;;;;;;0.93;0.80;;;;;;;20.07;58.16;97053.38;10216593;29;20059;-82
2022/05/21 18:53:20;;;;;;;0.88;0.70;;;;;;;20.07;58.02;97049.84;10213272;29;20051;-82
2022/05/21 18:58:40;;;;;;;0.80;0.80;;;;;;;20.07;58.10;97045.25;10215621;29;20053;-82
2022/05/21 19:04:00;;;;;;;0.60;0.60;;;;;;;20.07;58.05;97055.25;10216319;29;20058;-82
2022/05/21 19:09:22;;;;;;;0.93;0.77;;;;;;;20.07;58.10;97055.25;10228419;29;20131;-82
2022/05/21 19:14:42;;;;;;;0.80;0.75;;;;;;;20.07;57.95;97060.69;10222142;29;20051;-82
2022/05/21 19:20:01;;;;;;;0.90;0.70;;;;;;;20.06;57.89;97053.69;10215520;29;20506;-82
2022/05/21 19:25:21;;;;;;;0.60;0.60;;;;;;;20.06;57.91;97057.19;10173059;29;20048;-82
2022/05/21 19:30:40;;;;;;;0.60;0.60;;;;;;;20.05;58.00;97069.13;10184269;29;20056;-82
2022/05/21 19:36:00;;;;;;;0.75;0.75;;;;;;;20.06;57.98;97062.59;10170314;29;20487;-82
2022/05/21 19:41:20;;;;;;;0.70;0.70;;;;;;;20.06;57.77;97064.50;10199198;29;20555;-82
2022/05/21 19:46:39;;;;;;;0.70;0.70;;;;;;;20.05;57.90;97068.31;10185420;29;20051;-82
2022/05/21 19:51:58;;;;;;;0.70;0.70;;;;;;;20.05;57.79;97063.72;10181261;29;20056;-82
2022/05/21 19:57:19;;;;;;;0.75;0.75;;;;;;;20.04;57.69;97067.53;10207744;29;20080;-82
2022/05/21 20:02:40;;;;;;;0.57;0.57;;;;;;;20.04;57.72;97072.94;10223525;29;20063;-82
2022/05/21 20:08:00;;;;;;;0.60;0.60;;;;;;;20.05;57.88;97073.72;10219974;29;20463;-82
2022/05/21 20:13:20;;;;;;;0.70;0.70;;;;;;;20.05;57.86;97069.13;10218683;29;20045;-82
2022/05/21 20:18:39;;;;;;;0.80;0.60;;;;;;;20.06;57.80;97069.91;10194601;29;20052;-82
2022/05/21 20:23:59;;;;;;;0.60;0.60;;;;;;;20.04;57.70;97070.22;10195146;29;20064;-82
2022/05/21 20:29:18;;;;;;;0.88;0.63;;;;;;;20.04;57.85;97072.16;10183784;29;20052;-82
2022/05/21 20:34:37;;;;;;;0.60;0.60;;;;;;;20.04;57.89;97072.16;10195425;29;20049;-82
2022/05/21 20:40:00;;;;;;;0.70;0.70;;;;;;;20.04;57.65;97083.75;10184140;29;20059;-82
2022/05/21 20:45:19;;;;;;;0.70;0.70;;;;;;;20.03;57.71;97082.19;10126771;29;20464;-82
2022/05/21 20:50:39;;;;;;;0.60;0.60;;;;;;;20.04;57.63;97082.97;10162756;29;20480;-82
2022/05/21 20:55:59;;;;;;;0.55;0.55;;;;;;;20.04;57.71;97078.34;10166688;29;20056;-81
2022/05/21 21:01:18;;;;;;;0.65;0.60;;;;;;;20.03;57.53;97070.53;10182186;29;20075;-81
2022/05/21 21:06:37;;;;;;;0.55;0.55;;;;;;;20.05;57.78;97079.13;10167691;29;20392;-82
2022/05/21 21:11:57;;;;;;;0.60;0.60;;;;;;;20.04;57.60;97077.56;10164812;29;20063;-82
2022/05/21 21:17:16;;;;;;;0.65;0.65;;;;;;;20.03;57.59;97075.97;10150506;29;20052;-82
2022/05/21 21:22:35;;;;;;;0.63;0.63;;;;;;;20.03;57.70;97076.78;10195218;29;20052;-82
2022/05/21 21:27:55;;;;;;;0.60;0.60;;;;;;;20.02;57.51;97075.16;10168137;29;20067;-82
2022/05/21 21:33:16;;;;;;;0.65;0.65;;;;;;;20.03;57.45;97070.53;10180124;29;20060;-82
2022/05/21 21:38:36;;;;;;;0.50;0.50;;;;;;;20.03;57.48;97070.53;10168361;29;20058;-82
2022/05/21 21:43:55;;;;;;;0.57;0.57;;;;;;;20.02;57.42;97072.47;10166357;29;20049;-82
2022/05/21 21:49:15;;;;;;;0.60;0.60;;;;;;;20.02;57.35;97068.97;10191661;29;20060;-82
2022/05/21 21:54:35;;;;;;;1.05;0.68;;;;;;;20.02;57.37;97067.06;10164024;29;20056;-82
2022/05/21 22:05:33;;;;;;;0.60;0.60;;;;;;;20.01;57.36;97062.75;10193120;29;20052;-82
2022/05/21 22:10:53;;;;;;;0.57;0.57;;;;;;;20.01;57.50;97056.56;10204848;29;20120;-82
2022/05/21 22:16:12;;;;;;;0.50;0.50;;;;;;;20.02;57.43;97063.56;10183586;29;20593;-82
2022/05/21 22:21:32;;;;;;;0.88;0.55;;;;;;;20.02;57.36;97063.56;10166394;29;20185;-82
2022/05/21 22:26:53;;;;;;;0.65;0.65;;;;;;;20.01;57.37;97070.84;10194436;29;20066;-82
2022/05/21 22:32:13;;;;;;;0.60;0.60;;;;;;;20.01;57.59;97067.38;10192074;29;20056;-82
2022/05/21 22:37:32;;;;;;;0.57;0.57;;;;;;;20.02;57.35;97067.06;10180840;29;20107;-82
2022/05/21 22:42:51;;;;;;;0.60;0.60;;;;;;;20.02;57.41;97066.28;10165256;29;20415;-82
2022/05/21 22:48:11;;;;;;;0.70;0.70;;;;;;;20.02;57.29;97060.88;10168007;29;20052;-82
2022/05/21 22:53:30;;;;;;;0.68;0.60;;;;;;;20.01;57.34;97054.63;10164939;29;20049;-82
2022/05/21 22:58:50;;;;;;;0.52;0.52;;;;;;;20.01;57.15;97051.94;10193034;29;20719;-82
2022/05/21 23:04:09;;;;;;;0.63;0.57;;;;;;;20.00;57.34;97047.66;10199000;29;20064;-82
2022/05/21 23:09:29;;;;;;;0.68;0.68;;;;;;;20.00;57.17;97033.34;10191711;29;20056;-83
2022/05/21 23:20:27;;;;;;;0.80;0.60;;;;;;;20.00;57.18;97028.72;10200529;29;20062;-82
2022/05/21 23:25:48;;;;;;;0.88;0.60;;;;;;;19.99;57.19;97027.13;10145371;29;20061;-82
2022/05/21 23:31:07;;;;;;;0.50;0.50;;;;;;;19.99;57.11;97023.63;10157146;29;20063;-82
2022/05/21 23:36:26;;;;;;;1.65;0.65;;;;;;;20.00;57.23;97022.53;10136267;29;20052;-82
2022/05/21 23:41:46;;;;;;;0.68;0.68;;;;;;;19.99;57.13;97020.94;10159821;29;20057;-82
2022/05/21 23:47:06;;;;;;;0.70;0.70;;;;;;;19.98;57.09;97009.31;10160480;29;20061;-82
2022/05/21 23:52:25;;;;;;;0.93;0.60;;;;;;;19.98;57.07;97003.13;10178396;29;20052;-82
2022/05/21 23:57:45;;;;;;;0.50;0.50;;;;;;;19.98;57.05;96998.50;10172085;29;20056;-82
